N770XJ KCLT-KORL
Flight info
| Callsign | N770XJ |
|---|---|
| Flight time | N/A |
| Altitude | 47000 |
| Route | ICONS5 NOOKS LPERD TTHOR3 |
| Aircraft | C750/M-SBDE3FGHRWXY/S |
Departure
| Time | 2026-05-05 00:36 |
|---|---|
| Airport | Charlotte Douglas International Airport (KCLT) |
Arrival
| Time | N/A |
|---|---|
| Airport | Orlando Executive Airport (KORL) |
| Time | Latitude | Longitude | Altitude | Speed | Heading |
|---|---|---|---|---|---|
| 2026-05-05 00:09 | 35.20838 | -80.93261 | 731 ft | 0 kts | 176° |
| 2026-05-05 00:14 | 35.20798 | -80.94361 | 732 ft | 0 kts | 227° |
| 2026-05-05 00:25 | 35.20841 | -80.93247 | 731 ft | 0 kts | 227° |
| 2026-05-05 00:29 | 35.20839 | -80.93249 | 731 ft | 1 kts | 226° |
| 2026-05-05 00:30 | 35.20838 | -80.93250 | 731 ft | 0 kts | 221° |
| 2026-05-05 00:30 | 35.20831 | -80.93251 | 731 ft | 1 kts | 181° |
| 2026-05-05 00:30 | 35.20814 | -80.93248 | 731 ft | 4 kts | 171° |
| 2026-05-05 00:30 | 35.20808 | -80.93247 | 731 ft | 0 kts | 171° |
| 2026-05-05 00:31 | 35.20795 | -80.93250 | 731 ft | 5 kts | 201° |
| 2026-05-05 00:31 | 35.20787 | -80.93300 | 729 ft | 10 kts | 266° |
| 2026-05-05 00:31 | 35.20858 | -80.93346 | 729 ft | 17 kts | 358° |
| 2026-05-05 00:31 | 35.21001 | -80.93357 | 729 ft | 25 kts | 357° |
| 2026-05-05 00:32 | 35.21199 | -80.93377 | 729 ft | 31 kts | 356° |
| 2026-05-05 00:32 | 35.21350 | -80.93388 | 729 ft | 17 kts | 355° |
| 2026-05-05 00:32 | 35.21459 | -80.93397 | 729 ft | 16 kts | 356° |
| 2026-05-05 00:32 | 35.21590 | -80.93407 | 730 ft | 22 kts | 355° |
| 2026-05-05 00:33 | 35.21763 | -80.93421 | 730 ft | 28 kts | 356° |
| 2026-05-05 00:33 | 35.21916 | -80.93428 | 731 ft | 19 kts | 11° |
| 2026-05-05 00:33 | 35.22058 | -80.93387 | 734 ft | 24 kts | 7° |
| 2026-05-05 00:33 | 35.22246 | -80.93397 | 730 ft | 29 kts | 355° |
| 2026-05-05 00:34 | 35.22383 | -80.93410 | 729 ft | 10 kts | 356° |
| 2026-05-05 00:34 | 35.22451 | -80.93416 | 729 ft | 10 kts | 355° |
| 2026-05-05 00:34 | 35.22509 | -80.93438 | 729 ft | 8 kts | 308° |
| 2026-05-05 00:34 | 35.22514 | -80.93502 | 730 ft | 7 kts | 264° |
| 2026-05-05 00:35 | 35.22510 | -80.93554 | 731 ft | 7 kts | 264° |
| 2026-05-05 00:35 | 35.22504 | -80.93614 | 732 ft | 3 kts | 253° |
| 2026-05-05 00:35 | 35.22495 | -80.93622 | 732 ft | 2 kts | 194° |
| 2026-05-05 00:35 | 35.22470 | -80.93618 | 733 ft | 0 kts | 175° |
| 2026-05-05 00:36 | 35.22252 | -80.93600 | 732 ft | 90 kts | 176° |
| 2026-05-05 00:36 | 35.21358 | -80.93527 | 892 ft | 146 kts | 178° |
| 2026-05-05 00:36 | 35.20314 | -80.93435 | 1605 ft | 154 kts | 177° |
| 2026-05-05 00:37 | 35.19281 | -80.93278 | 2607 ft | 145 kts | 175° |
| 2026-05-05 00:37 | 35.18270 | -80.93090 | 3401 ft | 150 kts | 176° |
| 2026-05-05 00:37 | 35.17230 | -80.92897 | 4198 ft | 154 kts | 176° |
| 2026-05-05 00:37 | 35.16103 | -80.92804 | 4777 ft | 172 kts | 182° |
| 2026-05-05 00:38 | 35.14886 | -80.92768 | 5381 ft | 187 kts | 181° |
| 2026-05-05 00:38 | 35.13464 | -80.92748 | 5505 ft | 225 kts | 182° |
| 2026-05-05 00:38 | 35.11816 | -80.92688 | 5524 ft | 233 kts | 177° |
| 2026-05-05 00:38 | 35.10270 | -80.92407 | 5477 ft | 222 kts | 174° |
| 2026-05-05 00:39 | 35.08753 | -80.92439 | 5389 ft | 217 kts | 189° |
| 2026-05-05 00:39 | 35.07239 | -80.92730 | 5716 ft | 222 kts | 191° |
| 2026-05-05 00:39 | 35.05620 | -80.92963 | 6231 ft | 248 kts | 187° |
| 2026-05-05 00:39 | 35.03811 | -80.93120 | 6738 ft | 270 kts | 186° |
| 2026-05-05 00:40 | 35.01935 | -80.93284 | 7770 ft | 270 kts | 187° |
| 2026-05-05 00:40 | 35.00068 | -80.93478 | 8822 ft | 275 kts | 188° |
| 2026-05-05 00:40 | 34.98146 | -80.93678 | 9807 ft | 280 kts | 188° |
| 2026-05-05 00:40 | 34.96174 | -80.93874 | 10449 ft | 294 kts | 188° |
| 2026-05-05 00:41 | 34.94040 | -80.94089 | 10638 ft | 321 kts | 187° |
| 2026-05-05 00:41 | 34.91716 | -80.94321 | 10738 ft | 347 kts | 187° |
| 2026-05-05 00:41 | 34.89295 | -80.94557 | 11421 ft | 350 kts | 187° |
| 2026-05-05 00:41 | 34.86852 | -80.94797 | 12099 ft | 355 kts | 187° |
| 2026-05-05 00:42 | 34.84377 | -80.95048 | 12768 ft | 360 kts | 187° |
| 2026-05-05 00:42 | 34.81865 | -80.95299 | 13424 ft | 364 kts | 187° |
| 2026-05-05 00:42 | 34.79326 | -80.95550 | 14049 ft | 369 kts | 187° |
| 2026-05-05 00:42 | 34.76754 | -80.95805 | 14644 ft | 372 kts | 187° |
| 2026-05-05 00:43 | 34.74165 | -80.96063 | 15232 ft | 375 kts | 187° |
| 2026-05-05 00:43 | 34.71552 | -80.96323 | 15829 ft | 379 kts | 187° |
| 2026-05-05 00:43 | 34.68948 | -80.96581 | 16437 ft | 382 kts | 188° |
| 2026-05-05 00:43 | 34.66289 | -80.96844 | 17065 ft | 385 kts | 188° |
| 2026-05-05 00:44 | 34.63600 | -80.97111 | 17694 ft | 389 kts | 188° |
| 2026-05-05 00:44 | 34.60888 | -80.97379 | 18346 ft | 393 kts | 188° |
| 2026-05-05 00:44 | 34.58154 | -80.97636 | 18942 ft | 396 kts | 188° |
| 2026-05-05 00:44 | 34.55396 | -80.97887 | 19566 ft | 399 kts | 188° |
| 2026-05-05 00:45 | 34.52621 | -80.98148 | 20192 ft | 402 kts | 188° |
| 2026-05-05 00:45 | 34.49820 | -80.98415 | 20830 ft | 405 kts | 188° |
| 2026-05-05 00:45 | 34.47006 | -80.98679 | 21460 ft | 408 kts | 188° |
| 2026-05-05 00:45 | 34.44163 | -80.98944 | 22083 ft | 411 kts | 188° |
| 2026-05-05 00:46 | 34.41336 | -80.99208 | 22695 ft | 414 kts | 188° |
| 2026-05-05 00:46 | 34.38451 | -80.99481 | 23277 ft | 418 kts | 188° |
| 2026-05-05 00:46 | 34.35535 | -80.99754 | 23822 ft | 421 kts | 188° |
| 2026-05-05 00:46 | 34.32604 | -81.00026 | 24329 ft | 424 kts | 188° |
| 2026-05-05 00:47 | 34.29653 | -81.00301 | 24823 ft | 427 kts | 188° |
| 2026-05-05 00:47 | 34.26683 | -81.00579 | 25317 ft | 430 kts | 188° |
| 2026-05-05 00:47 | 34.23691 | -81.00859 | 25801 ft | 432 kts | 188° |
| 2026-05-05 00:47 | 34.20684 | -81.01138 | 26284 ft | 435 kts | 188° |
| 2026-05-05 00:48 | 34.17654 | -81.01420 | 26763 ft | 438 kts | 188° |
| 2026-05-05 00:48 | 34.14644 | -81.01701 | 27216 ft | 441 kts | 188° |
| 2026-05-05 00:48 | 34.11583 | -81.01985 | 27712 ft | 443 kts | 189° |
| 2026-05-05 00:48 | 34.08492 | -81.02271 | 28268 ft | 447 kts | 189° |
| 2026-05-05 00:49 | 34.05382 | -81.02557 | 28902 ft | 450 kts | 189° |
| 2026-05-05 00:49 | 34.02240 | -81.02849 | 29488 ft | 454 kts | 189° |
| 2026-05-05 00:49 | 33.99080 | -81.03144 | 30074 ft | 458 kts | 189° |
| 2026-05-05 00:49 | 33.95887 | -81.03431 | 30577 ft | 462 kts | 188° |
| 2026-05-05 00:50 | 33.92666 | -81.03662 | 31120 ft | 464 kts | 188° |
| 2026-05-05 00:50 | 33.89454 | -81.03875 | 31911 ft | 459 kts | 188° |
| 2026-05-05 00:50 | 33.86282 | -81.04120 | 32716 ft | 455 kts | 189° |
| 2026-05-05 00:50 | 33.83136 | -81.04380 | 33530 ft | 451 kts | 189° |
| 2026-05-05 00:51 | 33.80056 | -81.04616 | 34281 ft | 448 kts | 189° |
| 2026-05-05 00:51 | 33.76943 | -81.04843 | 34848 ft | 449 kts | 189° |
| 2026-05-05 00:51 | 33.73819 | -81.05079 | 35360 ft | 451 kts | 189° |
| 2026-05-05 00:51 | 33.70686 | -81.05323 | 35908 ft | 452 kts | 189° |
| 2026-05-05 00:52 | 33.67544 | -81.05563 | 36452 ft | 453 kts | 189° |
| 2026-05-05 00:52 | 33.64397 | -81.05799 | 37006 ft | 454 kts | 189° |
| 2026-05-05 00:52 | 33.61234 | -81.06038 | 37518 ft | 456 kts | 190° |
| 2026-05-05 00:52 | 33.58067 | -81.06280 | 38066 ft | 457 kts | 190° |
| 2026-05-05 00:53 | 33.54889 | -81.06521 | 38648 ft | 458 kts | 190° |
| 2026-05-05 00:53 | 33.51704 | -81.06762 | 39127 ft | 459 kts | 190° |
| 2026-05-05 00:53 | 33.48517 | -81.07002 | 39630 ft | 459 kts | 190° |
| 2026-05-05 00:53 | 33.45369 | -81.07240 | 40126 ft | 459 kts | 190° |
| 2026-05-05 00:54 | 33.42181 | -81.07482 | 40653 ft | 459 kts | 190° |
| 2026-05-05 00:54 | 33.38996 | -81.07722 | 41158 ft | 459 kts | 190° |
| 2026-05-05 00:54 | 33.35807 | -81.07962 | 41637 ft | 459 kts | 191° |
| 2026-05-05 00:54 | 33.32622 | -81.08202 | 42180 ft | 458 kts | 191° |
| 2026-05-05 00:55 | 33.29438 | -81.08442 | 42674 ft | 458 kts | 191° |
| 2026-05-05 00:55 | 33.26255 | -81.08682 | 43160 ft | 458 kts | 191° |
| 2026-05-05 00:55 | 33.23068 | -81.08922 | 43637 ft | 459 kts | 191° |
| 2026-05-05 00:55 | 33.19883 | -81.09161 | 44108 ft | 459 kts | 191° |
| 2026-05-05 00:56 | 33.16698 | -81.09400 | 44565 ft | 459 kts | 191° |
| 2026-05-05 00:56 | 33.13515 | -81.09639 | 44984 ft | 459 kts | 191° |
| 2026-05-05 00:56 | 33.10328 | -81.09878 | 45360 ft | 459 kts | 191° |
| 2026-05-05 00:56 | 33.07138 | -81.10117 | 45727 ft | 459 kts | 191° |
| 2026-05-05 00:57 | 33.03954 | -81.10355 | 46084 ft | 459 kts | 191° |
| 2026-05-05 00:57 | 33.00764 | -81.10594 | 46402 ft | 459 kts | 191° |
| 2026-05-05 00:57 | 32.97616 | -81.10830 | 46708 ft | 459 kts | 191° |
| 2026-05-05 00:57 | 32.94431 | -81.11067 | 47007 ft | 459 kts | 191° |
| 2026-05-05 00:58 | 32.91224 | -81.11309 | 47059 ft | 465 kts | 191° |
| 2026-05-05 00:58 | 32.84673 | -81.11800 | 47074 ft | 478 kts | 190° |
| 2026-05-05 00:59 | 32.77952 | -81.12298 | 47074 ft | 490 kts | 191° |
| 2026-05-05 00:59 | 32.71081 | -81.12810 | 47075 ft | 500 kts | 190° |
| 2026-05-05 01:00 | 32.64081 | -81.13327 | 47077 ft | 508 kts | 190° |
| 2026-05-05 01:00 | 32.57037 | -81.13850 | 47035 ft | 513 kts | 191° |
| 2026-05-05 01:01 | 32.49900 | -81.14377 | 47078 ft | 516 kts | 191° |
| 2026-05-05 01:01 | 32.42717 | -81.14909 | 47081 ft | 518 kts | 191° |
| 2026-05-05 01:02 | 32.35503 | -81.15440 | 47082 ft | 520 kts | 190° |
| 2026-05-05 01:02 | 32.28269 | -81.15973 | 47098 ft | 521 kts | 191° |
| 2026-05-05 01:03 | 32.21050 | -81.16495 | 47085 ft | 509 kts | 191° |
| 2026-05-05 01:03 | 32.17648 | -81.16736 | 47059 ft | 485 kts | 191° |
| 2026-05-05 01:03 | 32.14352 | -81.16979 | 47016 ft | 464 kts | 192° |
| 2026-05-05 01:03 | 32.11175 | -81.17221 | 46547 ft | 454 kts | 192° |
| 2026-05-05 01:04 | 32.08026 | -81.17463 | 45688 ft | 454 kts | 192° |
| 2026-05-05 01:04 | 32.01716 | -81.17918 | 43724 ft | 453 kts | 192° |
| 2026-05-05 01:04 | 31.98574 | -81.18146 | 42706 ft | 452 kts | 192° |
| 2026-05-05 01:05 | 31.95430 | -81.18381 | 41649 ft | 453 kts | 192° |
| 2026-05-05 01:05 | 31.92287 | -81.18613 | 40590 ft | 454 kts | 192° |
| 2026-05-05 01:05 | 31.89132 | -81.18841 | 39527 ft | 454 kts | 192° |
| 2026-05-05 01:05 | 31.85990 | -81.19072 | 38212 ft | 472 kts | 192° |
| 2026-05-05 01:06 | 31.82629 | -81.19339 | 37654 ft | 494 kts | 191° |
| 2026-05-05 01:06 | 31.79134 | -81.19590 | 37203 ft | 510 kts | 191° |
| 2026-05-05 01:06 | 31.75560 | -81.19828 | 36743 ft | 518 kts | 191° |
| 2026-05-05 01:06 | 31.71951 | -81.20086 | 36319 ft | 522 kts | 191° |
| 2026-05-05 01:07 | 31.68322 | -81.20364 | 35896 ft | 523 kts | 191° |
| 2026-05-05 01:07 | 31.64679 | -81.20632 | 35469 ft | 525 kts | 191° |
| 2026-05-05 01:07 | 31.61037 | -81.20885 | 35041 ft | 525 kts | 190° |
| 2026-05-05 01:07 | 31.57386 | -81.21146 | 34618 ft | 526 kts | 190° |
| 2026-05-05 01:08 | 31.53737 | -81.21417 | 34211 ft | 526 kts | 190° |
| 2026-05-05 01:08 | 31.50088 | -81.21684 | 34089 ft | 523 kts | 190° |
| 2026-05-05 01:08 | 31.42868 | -81.22200 | 34088 ft | 518 kts | 191° |
| 2026-05-05 01:09 | 31.35729 | -81.22722 | 34097 ft | 512 kts | 191° |
| 2026-05-05 01:09 | 31.28634 | -81.23228 | 34085 ft | 512 kts | 191° |
| 2026-05-05 01:10 | 31.21510 | -81.23748 | 34049 ft | 515 kts | 191° |
| 2026-05-05 01:10 | 31.14348 | -81.24256 | 34085 ft | 516 kts | 192° |
| 2026-05-05 01:11 | 31.07167 | -81.24775 | 34080 ft | 517 kts | 192° |
| 2026-05-05 01:11 | 31.00023 | -81.25288 | 34080 ft | 518 kts | 191° |
| 2026-05-05 01:12 | 30.92827 | -81.25799 | 34083 ft | 518 kts | 192° |
| 2026-05-05 01:12 | 30.85623 | -81.26313 | 34084 ft | 519 kts | 192° |
| 2026-05-05 01:13 | 30.78414 | -81.26830 | 34074 ft | 516 kts | 192° |
| 2026-05-05 01:13 | 30.74930 | -81.27057 | 33424 ft | 492 kts | 191° |
| 2026-05-05 01:13 | 30.71460 | -81.27315 | 32750 ft | 506 kts | 192° |
| 2026-05-05 01:14 | 30.67923 | -81.27596 | 32060 ft | 513 kts | 191° |
| 2026-05-05 01:14 | 30.64339 | -81.27843 | 31360 ft | 519 kts | 191° |
| 2026-05-05 01:14 | 30.60722 | -81.28068 | 30650 ft | 521 kts | 190° |
| 2026-05-05 01:14 | 30.57063 | -81.28003 | 29904 ft | 529 kts | 185° |
| 2026-05-05 01:15 | 30.53427 | -81.27786 | 29187 ft | 532 kts | 184° |
| 2026-05-05 01:15 | 30.49731 | -81.27548 | 28457 ft | 525 kts | 184° |
| 2026-05-05 01:15 | 30.46202 | -81.27360 | 27763 ft | 498 kts | 185° |
| 2026-05-05 01:15 | 30.42762 | -81.27224 | 27095 ft | 492 kts | 185° |
| 2026-05-05 01:16 | 30.39353 | -81.27068 | 26430 ft | 487 kts | 184° |
| 2026-05-05 01:16 | 30.35990 | -81.26872 | 25774 ft | 482 kts | 183° |
| 2026-05-05 01:16 | 30.32654 | -81.26688 | 25121 ft | 477 kts | 183° |
| 2026-05-05 01:16 | 30.29350 | -81.26533 | 24482 ft | 472 kts | 183° |
| 2026-05-05 01:17 | 30.26085 | -81.26377 | 23836 ft | 469 kts | 182° |
| 2026-05-05 01:17 | 30.22839 | -81.26174 | 23153 ft | 464 kts | 181° |
| 2026-05-05 01:17 | 30.19632 | -81.25946 | 22525 ft | 460 kts | 181° |
| 2026-05-05 01:17 | 30.16450 | -81.25749 | 21906 ft | 456 kts | 181° |
| 2026-05-05 01:18 | 30.13338 | -81.25577 | 21300 ft | 452 kts | 181° |
| 2026-05-05 01:18 | 30.10215 | -81.25387 | 20678 ft | 448 kts | 181° |
| 2026-05-05 01:18 | 30.07110 | -81.25185 | 20088 ft | 445 kts | 181° |
| 2026-05-05 01:18 | 30.04035 | -81.24994 | 19487 ft | 441 kts | 181° |
| 2026-05-05 01:19 | 30.00988 | -81.24814 | 18895 ft | 437 kts | 181° |
| 2026-05-05 01:19 | 29.97962 | -81.24630 | 18289 ft | 433 kts | 180° |
| 2026-05-05 01:19 | 29.94972 | -81.24443 | 17679 ft | 429 kts | 180° |
| 2026-05-05 01:19 | 29.92059 | -81.24267 | 17103 ft | 403 kts | 181° |
| 2026-05-05 01:20 | 29.89338 | -81.24216 | 16573 ft | 386 kts | 181° |
| 2026-05-05 01:20 | 29.86616 | -81.24092 | 16039 ft | 405 kts | 180° |
| 2026-05-05 01:20 | 29.83820 | -81.23952 | 15497 ft | 410 kts | 180° |
| 2026-05-05 01:20 | 29.80973 | -81.23856 | 14935 ft | 409 kts | 181° |
| 2026-05-05 01:21 | 29.78137 | -81.23775 | 14340 ft | 406 kts | 180° |
| 2026-05-05 01:21 | 29.75321 | -81.23670 | 13729 ft | 403 kts | 180° |
| 2026-05-05 01:21 | 29.72525 | -81.23555 | 13158 ft | 400 kts | 180° |
| 2026-05-05 01:21 | 29.69753 | -81.23453 | 12613 ft | 397 kts | 180° |
| 2026-05-05 01:22 | 29.66994 | -81.23361 | 12081 ft | 395 kts | 180° |
| 2026-05-05 01:22 | 29.64256 | -81.23249 | 12002 ft | 395 kts | 179° |
| 2026-05-05 01:22 | 29.61509 | -81.23078 | 12001 ft | 395 kts | 178° |
| 2026-05-05 01:22 | 29.58802 | -81.22902 | 11997 ft | 396 kts | 179° |
| 2026-05-05 01:23 | 29.56943 | -81.22799 | 11868 ft | 395 kts | 179° |